PWSweather.com
Personal Weather Stations
Station Observations
IMAZOWIE6
WarszawaPL

WarszawaPL

Lat: 52.27957, Lon: 21.05489

Elevation: 100

Station Type: WS1080

http://stacjapogody.waw.pl/

High Low Average
Temperature 66.4°F19.1°C 52.9°F11.6°C 58.3°F14.6°C
Dew Point 27.5°F-2.5°C -167.5°F-110.8°C -93.1°F-69.5°C
Winds 4.0 mph 6.4 kmh Calm Calm 2.0 mph N3.2 kmh N
Wind Gusts 8.8 mph14.2 kmh 2.0 mph3.2 kmh 4.0 mph6.4 kmh
Humidity 33% 11% 29%
Pressure 29.57 in1001.4 mb 29.47 in998.0 mb -
Precipitation 0.00 in0.0 mm - -
Hour Temp Dew Point Humidity Winds Wind Gusts Pressure Precip Precip Rate Daily Precip Total
12:05 AM 56.5°F13.6°C 24.4°F-4.2°C 29% 2.0 mph N3.2 kmh N 4.0 mph6.4 kmh 29.55 in1000.7 mb 0.00 in0.0 mm 0.00 in0.0 mm 0.00 in0.0 mm
12:20 AM 56.5°F13.6°C 25.2°F-3.8°C 30% 1.4 mph N2.3 kmh N 3.4 mph5.5 kmh 29.55 in1000.7 mb 0.00 in0.0 mm 0.00 in0.0 mm 0.00 in0.0 mm
12:35 AM 56.5°F13.6°C 25.2°F-3.8°C 30% 1.4 mph N2.3 kmh N 2.8 mph4.5 kmh 29.55 in1000.7 mb 0.00 in0.0 mm 0.00 in0.0 mm 0.00 in0.0 mm
12:50 AM 56.7°F13.7°C 25.4°F-3.7°C 30% 1.4 mph N2.3 kmh N 2.8 mph4.5 kmh 29.54 in1000.3 mb 0.00 in0.0 mm 0.00 in0.0 mm 0.00 in0.0 mm
01:05 AM 56.7°F13.7°C 26.2°F-3.2°C 31% 1.4 mph N2.3 kmh N 2.8 mph4.5 kmh 29.54 in1000.3 mb 0.00 in0.0 mm 0.00 in0.0 mm 0.00 in0.0 mm
01:20 AM 56.7°F13.7°C 26.2°F-3.2°C 31% 2.8 mph N4.5 kmh N 6.8 mph10.9 kmh 29.55 in1000.7 mb 0.00 in0.0 mm 0.00 in0.0 mm 0.00 in0.0 mm
01:35 AM 56.7°F13.7°C 27.0°F-2.8°C 32% 1.4 mph N2.3 kmh N 3.4 mph5.5 kmh 29.55 in1000.7 mb 0.00 in0.0 mm 0.00 in0.0 mm 0.00 in0.0 mm
01:50 AM 56.8°F13.8°C 27.1°F-2.7°C 32% 1.4 mph N2.3 kmh N 3.4 mph5.5 kmh 29.54 in1000.3 mb 0.00 in0.0 mm 0.00 in0.0 mm 0.00 in0.0 mm
02:05 AM 57.0°F13.9°C 27.3°F-2.6°C 32% 2.0 mph N3.2 kmh N 4.0 mph6.4 kmh 29.55 in1000.7 mb 0.00 in0.0 mm 0.00 in0.0 mm 0.00 in0.0 mm
02:20 AM 56.8°F13.8°C 27.1°F-2.7°C 32% 1.4 mph N2.3 kmh N 3.4 mph5.5 kmh 29.54 in1000.3 mb 0.00 in0.0 mm 0.00 in0.0 mm 0.00 in0.0 mm
02:35 AM 56.8°F13.8°C 27.1°F-2.7°C 32% 0.6 mph N1.0 kmh N 2.0 mph3.2 kmh 29.55 in1000.7 mb 0.00 in0.0 mm 0.00 in0.0 mm 0.00 in0.0 mm
02:50 AM 56.7°F13.7°C 27.0°F-2.8°C 32% 1.4 mph N2.3 kmh N 3.4 mph5.5 kmh 29.54 in1000.3 mb 0.00 in0.0 mm 0.00 in0.0 mm 0.00 in0.0 mm
03:05 AM 56.5°F13.6°C 27.5°F-2.5°C 33% 1.4 mph N2.3 kmh N 4.0 mph6.4 kmh 29.54 in1000.3 mb 0.00 in0.0 mm 0.00 in0.0 mm 0.00 in0.0 mm
03:20 AM 56.5°F13.6°C 26.8°F-2.9°C 32% 1.4 mph N2.3 kmh N 3.4 mph5.5 kmh 29.54 in1000.3 mb 0.00 in0.0 mm 0.00 in0.0 mm 0.00 in0.0 mm
03:35 AM 56.3°F13.5°C 26.6°F-3.0°C 32% 1.4 mph N2.3 kmh N 3.4 mph5.5 kmh 29.54 in1000.3 mb 0.00 in0.0 mm 0.00 in0.0 mm 0.00 in0.0 mm
03:50 AM 56.3°F13.5°C 26.6°F-3.0°C 32% 1.4 mph N2.3 kmh N 3.4 mph5.5 kmh 29.54 in1000.3 mb 0.00 in0.0 mm 0.00 in0.0 mm 0.00 in0.0 mm
04:05 AM 56.3°F13.5°C 26.6°F-3.0°C 32% 1.4 mph N2.3 kmh N 4.0 mph6.4 kmh 29.53 in1000.0 mb 0.00 in0.0 mm 0.00 in0.0 mm 0.00 in0.0 mm
04:20 AM 56.1°F13.4°C 26.5°F-3.1°C 32% 0.6 mph N1.0 kmh N 2.0 mph3.2 kmh 29.53 in1000.0 mb 0.00 in0.0 mm 0.00 in0.0 mm 0.00 in0.0 mm
04:35 AM 56.1°F13.4°C 26.5°F-3.1°C 32% 2.0 mph N3.2 kmh N 4.0 mph6.4 kmh 29.53 in1000.0 mb 0.00 in0.0 mm 0.00 in0.0 mm 0.00 in0.0 mm
04:50 AM 56.3°F13.5°C 26.6°F-3.0°C 32% 1.4 mph N2.3 kmh N 3.4 mph5.5 kmh 29.53 in1000.0 mb 0.00 in0.0 mm 0.00 in0.0 mm 0.00 in0.0 mm
05:05 AM 56.3°F13.5°C 26.6°F-3.0°C 32% 1.4 mph N2.3 kmh N 3.4 mph5.5 kmh 29.53 in1000.0 mb 0.00 in0.0 mm 0.00 in0.0 mm 0.00 in0.0 mm
05:20 AM 56.3°F13.5°C 26.6°F-3.0°C 32% 2.0 mph N3.2 kmh N 4.0 mph6.4 kmh 29.53 in1000.0 mb 0.00 in0.0 mm 0.00 in0.0 mm 0.00 in0.0 mm
05:35 AM 56.5°F13.6°C 26.8°F-2.9°C 32% 1.4 mph N2.3 kmh N 4.0 mph6.4 kmh 29.52 in999.7 mb 0.00 in0.0 mm 0.00 in0.0 mm 0.00 in0.0 mm
05:50 AM 56.3°F13.5°C 26.6°F-3.0°C 32% 1.4 mph N2.3 kmh N 4.0 mph6.4 kmh 29.52 in999.7 mb 0.00 in0.0 mm 0.00 in0.0 mm 0.00 in0.0 mm
06:05 AM 56.5°F13.6°C 26.8°F-2.9°C 32% 2.0 mph N3.2 kmh N 4.0 mph6.4 kmh 29.52 in999.7 mb 0.00 in0.0 mm 0.00 in0.0 mm 0.00 in0.0 mm
06:20 AM 56.5°F13.6°C 26.8°F-2.9°C 32% 1.4 mph N2.3 kmh N 3.4 mph5.5 kmh 29.52 in999.7 mb 0.00 in0.0 mm 0.00 in0.0 mm 0.00 in0.0 mm
06:35 AM 56.5°F13.6°C 26.0°F-3.3°C 31% 0.6 mph N1.0 kmh N 2.8 mph4.5 kmh 29.52 in999.7 mb 0.00 in0.0 mm 0.00 in0.0 mm 0.00 in0.0 mm
06:50 AM 56.8°F13.8°C 26.3°F-3.2°C 31% 1.4 mph N2.3 kmh N 4.0 mph6.4 kmh 29.52 in999.7 mb 0.01 in0.3 mm 0.05 in1.3 mm 0.01 in0.3 mm
07:05 AM 56.7°F13.7°C 25.4°F-3.7°C 30% 2.0 mph N3.2 kmh N 3.4 mph5.5 kmh 29.53 in1000.0 mb 0.01 in0.3 mm 0.00 in0.0 mm 0.01 in0.3 mm
07:20 AM 57.0°F13.9°C 24.9°F-3.9°C 29% 2.0 mph N3.2 kmh N 4.8 mph7.7 kmh 29.52 in999.7 mb 0.00 in0.0 mm 0.00 in0.0 mm 0.01 in0.3 mm
07:35 AM 57.0°F13.9°C 24.1°F-4.4°C 28% 0.6 mph N1.0 kmh N 2.0 mph3.2 kmh 29.52 in999.7 mb 0.00 in0.0 mm 0.00 in0.0 mm 0.01 in0.3 mm
07:50 AM 57.9°F14.4°C 24.0°F-4.4°C 27% 2.0 mph N3.2 kmh N 4.0 mph6.4 kmh 29.53 in1000.0 mb 0.00 in0.0 mm 0.00 in0.0 mm 0.01 in0.3 mm
08:05 AM 58.6°F14.8°C 22.8°F-5.1°C 25% 2.8 mph N4.5 kmh N 6.2 mph10.0 kmh 29.53 in1000.0 mb 0.00 in0.0 mm 0.00 in0.0 mm 0.01 in0.3 mm
08:20 AM 59.0°F15.0°C 20.0°F-6.7°C 22% 2.0 mph N3.2 kmh N 3.4 mph5.5 kmh 29.53 in1000.0 mb 0.00 in0.0 mm 0.00 in0.0 mm 0.01 in0.3 mm
08:35 AM 59.4°F15.2°C 14.4°F-9.8°C 17% 2.0 mph N3.2 kmh N 3.4 mph5.5 kmh 29.53 in1000.0 mb 0.00 in0.0 mm 0.00 in0.0 mm 0.01 in0.3 mm
08:50 AM 59.5°F15.3°C 8.6°F-13.0°C 13% 2.0 mph N3.2 kmh N 2.8 mph4.5 kmh 29.52 in999.7 mb 0.00 in0.0 mm 0.00 in0.0 mm 0.01 in0.3 mm
09:05 AM 60.1°F15.6°C 5.4°F-14.8°C 11% 2.8 mph N4.5 kmh N 4.0 mph6.4 kmh 29.53 in1000.0 mb 0.00 in0.0 mm 0.00 in0.0 mm 0.01 in0.3 mm
09:20 AM 59.9°F15.5°C -166.8°F-110.4°C - 2.8 mph N4.5 kmh N 4.0 mph6.4 kmh 29.53 in1000.0 mb 0.00 in0.0 mm 0.00 in0.0 mm 0.01 in0.3 mm
09:35 AM 59.7°F15.4°C -166.8°F-110.4°C - 2.0 mph N3.2 kmh N 4.0 mph6.4 kmh 29.52 in999.7 mb 0.00 in0.0 mm 0.00 in0.0 mm 0.01 in0.3 mm
09:50 AM 60.3°F15.7°C -166.8°F-110.4°C - 2.0 mph N3.2 kmh N 4.0 mph6.4 kmh 29.52 in999.7 mb 0.00 in0.0 mm 0.00 in0.0 mm 0.01 in0.3 mm
10:05 AM 60.4°F15.8°C -166.8°F-110.4°C - 1.4 mph N2.3 kmh N 3.4 mph5.5 kmh 29.51 in999.3 mb 0.00 in0.0 mm 0.00 in0.0 mm 0.01 in0.3 mm
10:20 AM 61.5°F16.4°C -166.6°F-110.3°C - 2.8 mph N4.5 kmh N 6.2 mph10.0 kmh 29.51 in999.3 mb 0.00 in0.0 mm 0.00 in0.0 mm 0.01 in0.3 mm
10:35 AM 62.4°F16.9°C -166.6°F-110.3°C - 2.8 mph N4.5 kmh N 6.8 mph10.9 kmh 29.51 in999.3 mb 0.00 in0.0 mm 0.00 in0.0 mm 0.01 in0.3 mm
10:50 AM 63.3°F17.4°C -166.5°F-110.3°C - 4.0 mph N6.4 kmh N 8.8 mph14.2 kmh 29.50 in999.0 mb 0.00 in0.0 mm 0.00 in0.0 mm 0.01 in0.3 mm
11:05 AM 64.6°F18.1°C -166.3°F-110.2°C - 4.0 mph N6.4 kmh N 6.8 mph10.9 kmh 29.50 in999.0 mb 0.00 in0.0 mm 0.00 in0.0 mm 0.01 in0.3 mm
11:20 AM 64.9°F18.3°C -166.3°F-110.2°C - 3.4 mph N5.5 kmh N 6.2 mph10.0 kmh 29.49 in998.6 mb 0.00 in0.0 mm 0.00 in0.0 mm 0.01 in0.3 mm
11:35 AM 65.8°F18.8°C -166.2°F-110.1°C - Calm Calm 3.4 mph5.5 kmh 29.49 in998.6 mb 0.00 in0.0 mm 0.00 in0.0 mm 0.01 in0.3 mm
11:50 AM 66.4°F19.1°C -166.2°F-110.1°C - 0.6 mph N1.0 kmh N 4.0 mph6.4 kmh 29.48 in998.3 mb 0.00 in0.0 mm 0.00 in0.0 mm 0.01 in0.3 mm
12:05 PM 66.0°F18.9°C -166.2°F-110.1°C - 1.4 mph N2.3 kmh N 8.2 mph13.2 kmh 29.48 in998.3 mb 0.00 in0.0 mm 0.00 in0.0 mm 0.01 in0.3 mm
12:20 PM 66.4°F19.1°C -166.2°F-110.1°C - 1.4 mph N2.3 kmh N 5.4 mph8.7 kmh 29.48 in998.3 mb 0.00 in0.0 mm 0.00 in0.0 mm 0.01 in0.3 mm
12:35 PM 66.2°F19.0°C -166.2°F-110.1°C - Calm Calm 2.0 mph3.2 kmh 29.47 in998.0 mb 0.00 in0.0 mm 0.00 in0.0 mm 0.01 in0.3 mm
12:50 PM 65.5°F18.6°C -166.3°F-110.2°C - 0.6 mph N1.0 kmh N 4.0 mph6.4 kmh 29.47 in998.0 mb 0.00 in0.0 mm 0.00 in0.0 mm 0.01 in0.3 mm
01:05 PM 64.6°F18.1°C -166.3°F-110.2°C - 0.6 mph N1.0 kmh N 3.4 mph5.5 kmh 29.48 in998.3 mb 0.00 in0.0 mm 0.00 in0.0 mm 0.01 in0.3 mm
01:20 PM 64.2°F17.9°C -166.4°F-110.2°C - 0.6 mph N1.0 kmh N 3.4 mph5.5 kmh 29.48 in998.3 mb 0.00 in0.0 mm 0.00 in0.0 mm 0.01 in0.3 mm
01:35 PM 63.9°F17.7°C -166.4°F-110.2°C - 1.4 mph N2.3 kmh N 4.0 mph6.4 kmh 29.48 in998.3 mb 0.00 in0.0 mm 0.00 in0.0 mm 0.01 in0.3 mm
01:50 PM 63.5°F17.5°C -166.5°F-110.3°C - 1.4 mph N2.3 kmh N 6.8 mph10.9 kmh 29.48 in998.3 mb 0.00 in0.0 mm 0.00 in0.0 mm 0.01 in0.3 mm
02:05 PM 63.1°F17.3°C -166.5°F-110.3°C - 1.4 mph N2.3 kmh N 3.4 mph5.5 kmh 29.49 in998.6 mb 0.00 in0.0 mm 0.00 in0.0 mm 0.01 in0.3 mm
02:20 PM 61.2°F16.2°C -166.7°F-110.4°C - 0.6 mph N1.0 kmh N 3.4 mph5.5 kmh 29.49 in998.6 mb 0.00 in0.0 mm 0.00 in0.0 mm 0.01 in0.3 mm
02:35 PM 60.4°F15.8°C -166.8°F-110.4°C - 0.6 mph N1.0 kmh N 3.4 mph5.5 kmh 29.49 in998.6 mb 0.00 in0.0 mm 0.00 in0.0 mm 0.01 in0.3 mm
02:50 PM 60.4°F15.8°C -166.8°F-110.4°C - 2.8 mph N4.5 kmh N 5.4 mph8.7 kmh 29.49 in998.6 mb 0.00 in0.0 mm 0.00 in0.0 mm 0.01 in0.3 mm
03:05 PM 60.6°F15.9°C -166.7°F-110.4°C - 1.4 mph N2.3 kmh N 4.0 mph6.4 kmh 29.49 in998.6 mb 0.00 in0.0 mm 0.00 in0.0 mm 0.01 in0.3 mm
03:20 PM 60.4°F15.8°C -166.8°F-110.4°C - 2.0 mph N3.2 kmh N 5.4 mph8.7 kmh 29.49 in998.6 mb 0.00 in0.0 mm 0.00 in0.0 mm 0.01 in0.3 mm
03:35 PM 60.4°F15.8°C -166.8°F-110.4°C - 2.0 mph N3.2 kmh N 6.2 mph10.0 kmh 29.49 in998.6 mb 0.00 in0.0 mm 0.00 in0.0 mm 0.01 in0.3 mm
03:50 PM 60.1°F15.6°C -166.8°F-110.4°C - 2.8 mph N4.5 kmh N 5.4 mph8.7 kmh 29.49 in998.6 mb 0.00 in0.0 mm 0.00 in0.0 mm 0.01 in0.3 mm
04:05 PM 59.7°F15.4°C -166.8°F-110.4°C - 2.0 mph N3.2 kmh N 5.4 mph8.7 kmh 29.49 in998.6 mb 0.00 in0.0 mm 0.00 in0.0 mm 0.01 in0.3 mm
04:20 PM 59.4°F15.2°C -166.9°F-110.5°C - 0.6 mph N1.0 kmh N 3.4 mph5.5 kmh 29.49 in998.6 mb 0.00 in0.0 mm 0.00 in0.0 mm 0.01 in0.3 mm
04:35 PM 59.2°F15.1°C -166.9°F-110.5°C - 1.4 mph N2.3 kmh N 4.0 mph6.4 kmh 29.48 in998.3 mb 0.00 in0.0 mm 0.00 in0.0 mm 0.01 in0.3 mm
04:50 PM 58.6°F14.8°C -166.9°F-110.5°C - 2.0 mph N3.2 kmh N 4.0 mph6.4 kmh 29.49 in998.6 mb 0.00 in0.0 mm 0.00 in0.0 mm 0.01 in0.3 mm
05:05 PM 58.3°F14.6°C -167.0°F-110.6°C - 1.4 mph N2.3 kmh N 4.0 mph6.4 kmh 29.49 in998.6 mb 0.00 in0.0 mm 0.00 in0.0 mm 0.01 in0.3 mm
05:20 PM 57.9°F14.4°C -167.0°F-110.6°C - 0.6 mph N1.0 kmh N 3.4 mph5.5 kmh 29.50 in999.0 mb 0.00 in0.0 mm 0.00 in0.0 mm 0.01 in0.3 mm
05:35 PM 57.6°F14.2°C -167.0°F-110.6°C - 1.4 mph N2.3 kmh N 4.0 mph6.4 kmh 29.50 in999.0 mb 0.00 in0.0 mm 0.00 in0.0 mm 0.01 in0.3 mm
05:50 PM 57.6°F14.2°C -167.0°F-110.6°C - 1.4 mph N2.3 kmh N 4.0 mph6.4 kmh 29.50 in999.0 mb 0.00 in0.0 mm 0.00 in0.0 mm 0.01 in0.3 mm
06:05 PM 57.9°F14.4°C -167.0°F-110.6°C - 0.6 mph N1.0 kmh N 2.8 mph4.5 kmh 29.51 in999.3 mb 0.00 in0.0 mm 0.00 in0.0 mm 0.01 in0.3 mm
06:20 PM 58.3°F14.6°C -167.0°F-110.6°C - 2.0 mph N3.2 kmh N 4.8 mph7.7 kmh 29.51 in999.3 mb 0.00 in0.0 mm 0.00 in0.0 mm 0.01 in0.3 mm
06:35 PM 57.9°F14.4°C -167.0°F-110.6°C - 0.6 mph N1.0 kmh N 3.4 mph5.5 kmh 29.52 in999.7 mb 0.00 in0.0 mm 0.00 in0.0 mm 0.01 in0.3 mm
06:50 PM 57.4°F14.1°C -167.1°F-110.6°C - 0.6 mph N1.0 kmh N 2.8 mph4.5 kmh 29.53 in1000.0 mb 0.00 in0.0 mm 0.00 in0.0 mm 0.01 in0.3 mm
07:05 PM 57.0°F13.9°C -167.1°F-110.6°C - 1.4 mph N2.3 kmh N 6.8 mph10.9 kmh 29.53 in1000.0 mb 0.00 in0.0 mm 0.00 in0.0 mm 0.01 in0.3 mm
07:20 PM 56.5°F13.6°C -167.2°F-110.7°C - 1.4 mph N2.3 kmh N 4.0 mph6.4 kmh 29.53 in1000.0 mb 0.00 in0.0 mm 0.00 in0.0 mm 0.01 in0.3 mm
07:35 PM 56.3°F13.5°C -167.2°F-110.7°C - 2.0 mph N3.2 kmh N 4.0 mph6.4 kmh 29.54 in1000.3 mb 0.00 in0.0 mm 0.00 in0.0 mm 0.01 in0.3 mm
07:50 PM 55.9°F13.3°C -167.2°F-110.7°C - 2.8 mph N4.5 kmh N 5.4 mph8.7 kmh 29.54 in1000.3 mb 0.00 in0.0 mm 0.00 in0.0 mm 0.01 in0.3 mm
08:05 PM 56.1°F13.4°C -167.2°F-110.7°C - 2.0 mph N3.2 kmh N 4.0 mph6.4 kmh 29.55 in1000.7 mb 0.00 in0.0 mm 0.00 in0.0 mm 0.01 in0.3 mm
08:20 PM 56.1°F13.4°C -167.2°F-110.7°C - 1.4 mph N2.3 kmh N 4.8 mph7.7 kmh 29.56 in1001.0 mb 0.00 in0.0 mm 0.00 in0.0 mm 0.01 in0.3 mm
08:35 PM 56.3°F13.5°C -167.2°F-110.7°C - 0.6 mph N1.0 kmh N 3.4 mph5.5 kmh 29.56 in1001.0 mb 0.00 in0.0 mm 0.00 in0.0 mm 0.01 in0.3 mm
08:50 PM 55.4°F13.0°C -167.3°F-110.7°C - Calm Calm 2.8 mph4.5 kmh 29.56 in1001.0 mb 0.00 in0.0 mm 0.00 in0.0 mm 0.01 in0.3 mm
09:05 PM 54.9°F12.7°C -167.3°F-110.7°C - 1.4 mph N2.3 kmh N 4.0 mph6.4 kmh 29.57 in1001.4 mb 0.00 in0.0 mm 0.00 in0.0 mm 0.01 in0.3 mm
09:20 PM 54.7°F12.6°C -167.3°F-110.7°C - Calm Calm 2.0 mph3.2 kmh 29.57 in1001.4 mb 0.00 in0.0 mm 0.00 in0.0 mm 0.01 in0.3 mm
09:35 PM 54.1°F12.3°C -167.4°F-110.8°C - 1.4 mph N2.3 kmh N 3.4 mph5.5 kmh 29.57 in1001.4 mb 0.00 in0.0 mm 0.00 in0.0 mm 0.01 in0.3 mm
09:50 PM 53.8°F12.1°C -167.4°F-110.8°C - 1.4 mph N2.3 kmh N 4.8 mph7.7 kmh 29.56 in1001.0 mb 0.00 in0.0 mm 0.00 in0.0 mm 0.01 in0.3 mm
10:05 PM 53.1°F11.7°C -167.5°F-110.8°C - 2.8 mph N4.5 kmh N 4.8 mph7.7 kmh 29.56 in1001.0 mb 0.00 in0.0 mm 0.00 in0.0 mm 0.01 in0.3 mm
10:20 PM 52.9°F11.6°C -167.5°F-110.8°C - 2.8 mph N4.5 kmh N 6.8 mph10.9 kmh 29.56 in1001.0 mb 0.00 in0.0 mm 0.00 in0.0 mm 0.01 in0.3 mm
10:35 PM 53.1°F11.7°C -167.5°F-110.8°C - 2.0 mph N3.2 kmh N 5.4 mph8.7 kmh 29.56 in1001.0 mb 0.00 in0.0 mm 0.00 in0.0 mm 0.01 in0.3 mm
10:50 PM 53.1°F11.7°C -167.5°F-110.8°C - 2.0 mph N3.2 kmh N 5.4 mph8.7 kmh 29.56 in1001.0 mb 0.00 in0.0 mm 0.00 in0.0 mm 0.01 in0.3 mm
11:05 PM 52.9°F11.6°C -167.5°F-110.8°C - 0.6 mph N1.0 kmh N 3.4 mph5.5 kmh 29.56 in1001.0 mb 0.00 in0.0 mm 0.00 in0.0 mm 0.01 in0.3 mm
11:20 PM 53.1°F11.7°C -167.5°F-110.8°C - 2.0 mph N3.2 kmh N 4.0 mph6.4 kmh 29.56 in1001.0 mb 0.00 in0.0 mm 0.00 in0.0 mm 0.01 in0.3 mm
11:35 PM 53.2°F11.8°C -167.5°F-110.8°C - Calm Calm 2.0 mph3.2 kmh 29.56 in1001.0 mb 0.00 in0.0 mm 0.00 in0.0 mm 0.01 in0.3 mm
11:50 PM 53.6°F12.0°C -167.4°F-110.8°C - 1.4 mph N2.3 kmh N 4.8 mph7.7 kmh 29.56 in1001.0 mb 0.00 in0.0 mm 0.00 in0.0 mm 0.01 in0.3 mm